createdAt,value
2023-03-22T00:00:05.978Z,5.20
2023-03-22T00:02:35.597Z,6.07
2023-03-22T00:05:03.836Z,5.85
2023-03-22T00:07:32.321Z,6.03
2023-03-22T00:10:00.563Z,5.80
2023-03-22T00:12:28.775Z,5.68
2023-03-22T00:14:57.319Z,6.00
2023-03-22T00:17:27.576Z,6.03
2023-03-22T00:19:58.317Z,6.03
2023-03-22T00:22:26.618Z,5.63
2023-03-22T00:24:54.933Z,5.43
2023-03-22T00:27:23.165Z,5.40
2023-03-22T00:29:53.791Z,5.72
2023-03-22T00:32:22.231Z,5.68
2023-03-22T00:34:51.504Z,5.43
2023-03-22T00:37:21.069Z,5.47
2023-03-22T00:39:49.227Z,5.68
2023-03-22T00:42:17.414Z,5.60
2023-03-22T00:44:45.591Z,5.68
2023-03-22T00:47:14.125Z,5.95
2023-03-22T00:49:42.353Z,6.78
2023-03-22T00:52:10.801Z,7.22
2023-03-22T00:54:40.640Z,6.32
2023-03-22T00:57:08.938Z,5.68
2023-03-22T00:59:38.846Z,5.18
2023-03-22T01:02:08.266Z,5.57
2023-03-22T01:04:37.242Z,5.47
2023-03-22T01:07:07.752Z,4.80
2023-03-22T01:09:37.505Z,4.47
2023-03-22T01:12:07.666Z,3.53
2023-03-22T01:14:36.040Z,3.63
2023-03-22T01:17:04.580Z,4.10
2023-03-22T01:19:32.857Z,4.78
2023-03-22T01:22:01.529Z,3.97
2023-03-22T01:24:30.338Z,4.25
2023-03-22T01:26:58.647Z,4.55
2023-03-22T01:29:28.268Z,5.13
2023-03-22T01:31:56.451Z,4.50
2023-03-22T01:34:25.021Z,5.20
2023-03-22T01:36:54.462Z,5.22
2023-03-22T01:39:23.950Z,4.97
2023-03-22T01:41:57.197Z,4.85
2023-03-22T01:44:31.459Z,4.55
2023-03-22T01:47:01.565Z,4.35
2023-03-22T01:49:35.690Z,4.03
2023-03-22T01:52:09.653Z,4.38
2023-03-22T01:54:53.530Z,4.07
2023-03-22T01:57:33.390Z,4.20
2023-03-22T02:00:10.970Z,4.13
2023-03-22T02:02:42.403Z,3.58
2023-03-22T02:05:23.226Z,3.50
2023-03-22T02:07:53.003Z,3.88
2023-03-22T02:10:28.067Z,3.78
2023-03-22T02:13:28.215Z,3.70
2023-03-22T02:16:31.043Z,3.75
2023-03-22T02:19:42.568Z,3.67
2023-03-22T02:22:49.966Z,3.57
2023-03-22T02:25:49.530Z,3.42
2023-03-22T02:28:34.130Z,3.00
2023-03-22T02:31:40.728Z,3.55
2023-03-22T02:34:37.376Z,3.60
2023-03-22T02:37:54.570Z,3.33
2023-03-22T02:40:33.016Z,3.28
2023-03-22T02:43:10.359Z,3.17
2023-03-22T02:45:49.436Z,3.17
2023-03-22T02:48:27.845Z,3.53
2023-03-22T02:51:01.601Z,3.00
2023-03-22T02:53:37.454Z,3.33
2023-03-22T02:56:14.110Z,2.72
2023-03-22T02:58:47.494Z,3.47
2023-03-22T03:01:24.753Z,3.37
2023-03-22T03:03:58.278Z,4.28
2023-03-22T03:06:31.113Z,2.95
2023-03-22T03:09:02.766Z,3.63
2023-03-22T03:11:33.038Z,4.00
2023-03-22T03:14:02.197Z,4.10
2023-03-22T03:16:36.705Z,3.60
2023-03-22T03:19:19.849Z,3.43
2023-03-22T03:22:02.421Z,4.25
2023-03-22T03:24:39.823Z,4.32
2023-03-22T03:27:20.129Z,3.47
2023-03-22T03:29:56.422Z,3.78
2023-03-22T03:32:35.225Z,3.77
2023-03-22T03:35:17.994Z,3.97
2023-03-22T03:37:50.655Z,4.67
2023-03-22T03:40:25.859Z,3.60
2023-03-22T03:42:58.826Z,4.23
2023-03-22T03:45:27.421Z,3.90
2023-03-22T03:48:02.315Z,4.07
2023-03-22T03:50:31.129Z,3.50
2023-03-22T03:52:59.931Z,4.03
2023-03-22T03:55:29.302Z,4.07
2023-03-22T03:57:59.052Z,3.63
2023-03-22T04:00:27.383Z,3.47
2023-03-22T04:03:19.310Z,4.10
2023-03-22T04:06:06.649Z,4.50
2023-03-22T04:08:38.713Z,4.47
2023-03-22T04:11:08.138Z,3.73
2023-03-22T04:13:38.358Z,3.90
2023-03-22T04:16:11.667Z,3.90
2023-03-22T04:18:39.945Z,3.60
2023-03-22T04:21:12.113Z,4.60
2023-03-22T04:23:50.122Z,4.27
2023-03-22T04:26:19.854Z,4.27
2023-03-22T04:29:04.257Z,4.23
2023-03-22T04:31:35.691Z,4.50
2023-03-22T04:34:15.176Z,4.10
2023-03-22T04:36:53.163Z,4.57
2023-03-22T04:39:45.662Z,4.27
2023-03-22T04:42:32.310Z,4.10
2023-03-22T04:45:15.504Z,4.13
2023-03-22T04:47:47.209Z,4.07
2023-03-22T04:50:15.594Z,4.40
2023-03-22T04:52:50.893Z,3.87
2023-03-22T04:55:19.323Z,3.80
2023-03-22T04:57:47.575Z,3.83
2023-03-22T05:00:18.702Z,4.10
2023-03-22T05:02:47.115Z,3.73
2023-03-22T05:05:27.244Z,4.17
2023-03-22T05:07:56.253Z,3.60
2023-03-22T05:10:25.816Z,2.87
2023-03-22T05:12:55.311Z,3.63
2023-03-22T05:15:28.497Z,3.37
2023-03-22T05:17:56.688Z,3.70
2023-03-22T05:20:25.303Z,3.40
2023-03-22T05:23:19.241Z,3.77
2023-03-22T05:25:51.845Z,3.63
2023-03-22T05:28:22.366Z,3.50
2023-03-22T05:31:24.815Z,3.77
2023-03-22T05:33:58.342Z,3.20
2023-03-22T05:36:29.746Z,3.57
2023-03-22T05:39:21.186Z,3.60
2023-03-22T05:41:49.731Z,3.47
2023-03-22T05:44:18.385Z,4.00
2023-03-22T05:47:03.724Z,3.90
2023-03-22T05:49:35.851Z,4.20
2023-03-22T05:52:06.046Z,3.87
2023-03-22T05:55:07.907Z,4.63
2023-03-22T05:57:36.480Z,4.50
2023-03-22T06:00:13.249Z,5.13
2023-03-22T06:02:48.269Z,4.50
2023-03-22T06:05:18.437Z,4.30
2023-03-22T06:07:47.653Z,4.43
2023-03-22T06:10:18.280Z,4.70
2023-03-22T06:12:47.378Z,4.27
2023-03-22T06:15:24.393Z,3.80
2023-03-22T06:18:02.980Z,4.97
2023-03-22T06:20:35.320Z,4.50
2023-03-22T06:23:10.525Z,4.47
2023-03-22T06:25:41.036Z,5.00
2023-03-22T06:28:09.468Z,4.40
2023-03-22T06:30:40.158Z,4.50
2023-03-22T06:33:48.856Z,4.37
2023-03-22T06:36:31.681Z,4.90
2023-03-22T06:39:15.218Z,4.60
2023-03-22T06:41:45.893Z,5.50
2023-03-22T06:44:14.802Z,5.23
2023-03-22T06:47:03.786Z,5.87
2023-03-22T06:50:00.453Z,6.30
2023-03-22T06:52:43.131Z,6.63
2023-03-22T06:55:11.478Z,7.70
2023-03-22T06:57:39.742Z,7.17
2023-03-22T07:00:12.796Z,7.37
2023-03-22T07:02:41.071Z,7.33
2023-03-22T07:05:27.881Z,8.13
2023-03-22T07:07:56.143Z,7.87
2023-03-22T07:10:24.637Z,7.63
2023-03-22T07:12:52.966Z,7.47
2023-03-22T07:15:24.418Z,7.28
2023-03-22T07:18:02.037Z,7.07
2023-03-22T07:20:36.730Z,7.47
2023-03-22T07:23:05.875Z,6.85
2023-03-22T07:25:40.386Z,7.50
2023-03-22T07:28:29.565Z,7.30
2023-03-22T07:31:03.804Z,7.13
2023-03-22T07:33:42.231Z,6.70
2023-03-22T07:36:12.944Z,7.07
2023-03-22T07:38:41.878Z,6.78
2023-03-22T07:41:15.772Z,6.53
2023-03-22T07:44:11.216Z,6.30
2023-03-22T07:46:52.441Z,6.18
2023-03-22T07:49:28.188Z,6.20
2023-03-22T07:52:11.120Z,6.60
2023-03-22T07:54:39.487Z,6.18
2023-03-22T07:57:09.434Z,6.20
2023-03-22T07:59:46.147Z,5.82
2023-03-22T08:02:16.062Z,5.63
2023-03-22T08:04:52.255Z,6.10
2023-03-22T08:07:56.924Z,5.70
2023-03-22T08:10:25.337Z,5.25
2023-03-22T08:12:54.598Z,5.13
2023-03-22T08:15:26.575Z,5.63
2023-03-22T08:17:57.793Z,5.25
2023-03-22T08:20:34.111Z,5.10
2023-03-22T08:23:12.085Z,4.70
2023-03-22T08:26:13.016Z,5.35
2023-03-22T08:28:41.984Z,5.47
2023-03-22T08:31:15.501Z,3.95
2023-03-22T08:33:46.190Z,4.47
2023-03-22T08:36:17.417Z,4.18
2023-03-22T08:38:53.762Z,3.78
2023-03-22T08:41:30.343Z,4.10
2023-03-22T08:43:58.751Z,3.40
2023-03-22T08:46:27.052Z,3.90
2023-03-22T08:48:55.454Z,3.65
2023-03-22T08:51:32.169Z,3.22
2023-03-22T08:54:15.691Z,2.85
2023-03-22T08:57:03.475Z,2.75
2023-03-22T08:59:47.192Z,2.40
2023-03-22T09:02:35.600Z,2.42
2023-03-22T09:05:04.872Z,2.30
2023-03-22T09:07:33.813Z,2.15
2023-03-22T09:10:18.001Z,2.50
2023-03-22T09:12:49.171Z,2.60
2023-03-22T09:15:17.901Z,2.10
2023-03-22T09:17:50.249Z,1.80
2023-03-22T09:20:18.822Z,2.10
2023-03-22T09:22:48.757Z,1.83
2023-03-22T09:25:21.265Z,2.00
2023-03-22T09:27:51.088Z,2.28
2023-03-22T09:30:19.255Z,1.67
2023-03-22T09:32:47.807Z,2.20
2023-03-22T09:35:17.915Z,2.10
2023-03-22T09:37:58.842Z,1.98
2023-03-22T09:40:32.845Z,1.80
2023-03-22T09:43:07.232Z,1.92
2023-03-22T09:45:41.744Z,1.60
2023-03-22T09:48:20.610Z,1.70
2023-03-22T09:50:52.651Z,1.23
2023-03-22T09:53:23.607Z,1.50
2023-03-22T09:56:01.696Z,1.70
2023-03-22T09:58:36.774Z,1.23
2023-03-22T10:01:19.619Z,1.23
2023-03-22T10:04:26.159Z,0.77
2023-03-22T10:07:10.227Z,1.25
2023-03-22T10:09:54.208Z,0.80
2023-03-22T10:12:30.453Z,1.50
2023-03-22T10:15:07.708Z,1.10
2023-03-22T10:17:39.980Z,1.05
2023-03-22T10:20:22.316Z,1.20
2023-03-22T10:22:53.697Z,1.42
2023-03-22T10:25:32.744Z,1.75
2023-03-22T10:28:03.497Z,1.60
2023-03-22T10:30:40.589Z,1.85
2023-03-22T10:33:17.691Z,1.48
2023-03-22T10:35:46.980Z,1.80
2023-03-22T10:38:24.733Z,1.70
2023-03-22T10:40:56.634Z,1.60
2023-03-22T10:43:33.735Z,1.50
2023-03-22T10:46:05.058Z,1.70
2023-03-22T10:48:37.239Z,2.00
2023-03-22T10:51:07.496Z,1.70
2023-03-22T10:53:41.991Z,1.80
2023-03-22T10:56:15.576Z,1.77
2023-03-22T10:58:45.969Z,1.73
2023-03-22T11:01:17.983Z,1.58
2023-03-22T11:03:52.402Z,1.63
2023-03-22T11:06:25.747Z,1.48
2023-03-22T11:08:57.940Z,1.20
2023-03-22T11:11:30.306Z,1.10
2023-03-22T11:14:09.541Z,1.50
2023-03-22T11:16:48.445Z,1.60
2023-03-22T11:19:25.775Z,1.42
2023-03-22T11:21:56.187Z,1.73
2023-03-22T11:24:27.347Z,1.58
2023-03-22T11:27:08.261Z,1.52
2023-03-22T11:29:47.531Z,1.60
2023-03-22T11:32:28.785Z,1.70
2023-03-22T11:35:03.537Z,1.50
2023-03-22T11:37:32.038Z,2.10
2023-03-22T11:40:05.300Z,1.85
2023-03-22T11:42:36.733Z,1.70
2023-03-22T11:45:09.437Z,2.20
2023-03-22T11:47:40.194Z,1.30
2023-03-22T11:50:22.185Z,1.70
2023-03-22T11:52:50.659Z,1.70
2023-03-22T11:55:19.674Z,1.23
2023-03-22T11:57:51.909Z,1.30
2023-03-22T12:00:26.964Z,1.38
2023-03-22T12:03:00.396Z,0.80
2023-03-22T12:05:32.932Z,0.80
2023-03-22T12:08:10.359Z,1.00
2023-03-22T12:10:42.815Z,0.85
2023-03-22T12:13:19.701Z,1.05
2023-03-22T12:15:55.824Z,1.00
2023-03-22T12:18:30.693Z,0.70
2023-03-22T12:21:01.991Z,1.17
2023-03-22T12:23:35.263Z,0.82
2023-03-22T12:26:08.344Z,0.93
2023-03-22T12:28:42.700Z,1.02
2023-03-22T12:31:19.550Z,1.17
2023-03-22T12:33:51.263Z,0.80
2023-03-22T12:36:24.548Z,0.70
2023-03-22T12:38:57.049Z,1.02
2023-03-22T12:41:32.584Z,0.70
2023-03-22T12:44:05.122Z,0.63
2023-03-22T12:46:45.499Z,0.90
2023-03-22T12:49:24.392Z,0.85
2023-03-22T12:52:01.424Z,0.77
2023-03-22T12:54:30.573Z,0.70
2023-03-22T12:56:59.418Z,0.80
2023-03-22T12:59:32.463Z,0.43
2023-03-22T13:02:15.631Z,0.85
2023-03-22T13:04:56.836Z,0.80
2023-03-22T13:07:51.422Z,0.90
2023-03-22T13:10:50.844Z,0.80
2023-03-22T13:13:45.247Z,0.77
2023-03-22T13:16:24.649Z,0.85
2023-03-22T13:19:04.406Z,0.50
2023-03-22T13:21:36.665Z,0.70
2023-03-22T13:24:24.164Z,0.60
2023-03-22T13:26:54.634Z,0.80
2023-03-22T13:29:25.902Z,0.43
2023-03-22T13:32:01.088Z,0.55
2023-03-22T13:34:39.393Z,0.70
2023-03-22T13:37:12.653Z,0.80
2023-03-22T13:39:41.916Z,0.73
2023-03-22T13:42:21.589Z,0.60
2023-03-22T13:44:59.919Z,0.60
2023-03-22T13:47:38.430Z,0.60
2023-03-22T13:50:19.900Z,0.60
2023-03-22T13:52:59.904Z,0.68
2023-03-22T13:55:43.705Z,0.75
2023-03-22T13:58:32.951Z,0.65
2023-03-22T14:01:02.117Z,0.50
2023-03-22T14:03:35.470Z,0.55
2023-03-22T14:06:15.914Z,0.70
2023-03-22T14:08:48.242Z,0.77
2023-03-22T14:11:26.636Z,0.43
2023-03-22T14:14:01.385Z,0.30
2023-03-22T14:16:41.258Z,0.90
2023-03-22T14:19:17.393Z,0.32
